FIN1473 LOWW-EFHK
Flight info
| Callsign | FIN1473 |
|---|---|
| Flight time | N/A |
| Altitude | 35000 |
| Route | LEDVA DCT KATQA DCT BAVOK DCT NAVUR DCT SUTIK DCT SUWGI M985 BOKSU DCT GUNTA M857 SOKVA DCT ANAMA DCT KEMET DCT KEXLE DCT BEKNA DCT INTOR |
| Aircraft | A321/M-SDE3FGHIRWY/LB1 |
Departure
| Time | 2026-04-30 18:58 |
|---|---|
| Airport | Vienna International Airport (LOWW) |
Arrival
| Time | N/A |
|---|---|
| Airport | Helsinki Vantaa Airport (EFHK) |
| Time | Latitude | Longitude | Altitude | Speed | Heading |
|---|---|---|---|---|---|
| 2026-04-30 18:28 | 48.11972 | 16.55847 | 609 ft | 0 kts | 294° |
| 2026-04-30 18:28 | 48.11975 | 16.55839 | 609 ft | 0 kts | 296° |
| 2026-04-30 18:50 | 48.11966 | 16.55868 | 625 ft | 4 kts | 290° |
| 2026-04-30 18:50 | 48.11959 | 16.55906 | 624 ft | 4 kts | 275° |
| 2026-04-30 18:51 | 48.11961 | 16.55943 | 622 ft | 4 kts | 234° |
| 2026-04-30 18:51 | 48.11968 | 16.55955 | 624 ft | 0 kts | 206° |
| 2026-04-30 18:53 | 48.11964 | 16.55951 | 624 ft | 3 kts | 206° |
| 2026-04-30 18:53 | 48.11911 | 16.55912 | 624 ft | 12 kts | 206° |
| 2026-04-30 18:53 | 48.11836 | 16.55858 | 615 ft | 13 kts | 205° |
| 2026-04-30 18:53 | 48.11752 | 16.55799 | 616 ft | 14 kts | 203° |
| 2026-04-30 18:54 | 48.11675 | 16.55851 | 617 ft | 14 kts | 122° |
| 2026-04-30 18:54 | 48.11629 | 16.55985 | 619 ft | 15 kts | 116° |
| 2026-04-30 18:54 | 48.11583 | 16.56129 | 616 ft | 16 kts | 115° |
| 2026-04-30 18:54 | 48.11527 | 16.56299 | 624 ft | 21 kts | 116° |
| 2026-04-30 18:55 | 48.11462 | 16.56496 | 612 ft | 21 kts | 116° |
| 2026-04-30 18:55 | 48.11335 | 16.56889 | 624 ft | 20 kts | 116° |
| 2026-04-30 18:55 | 48.11275 | 16.57077 | 612 ft | 20 kts | 116° |
| 2026-04-30 18:56 | 48.11147 | 16.57463 | 618 ft | 19 kts | 116° |
| 2026-04-30 18:56 | 48.11095 | 16.57616 | 620 ft | 16 kts | 129° |
| 2026-04-30 18:56 | 48.10992 | 16.57613 | 608 ft | 16 kts | 208° |
| 2026-04-30 18:57 | 48.10979 | 16.57336 | 624 ft | 23 kts | 296° |
| 2026-04-30 18:57 | 48.11162 | 16.56776 | 620 ft | 96 kts | 296° |
| 2026-04-30 18:57 | 48.11546 | 16.55594 | 617 ft | 154 kts | 295° |
| 2026-04-30 18:58 | 48.12159 | 16.52130 | 1530 ft | 182 kts | 261° |
| 2026-04-30 18:58 | 48.11903 | 16.50316 | 2192 ft | 180 kts | 264° |
| 2026-04-30 18:58 | 48.11669 | 16.48361 | 2475 ft | 199 kts | 265° |
| 2026-04-30 18:59 | 48.11927 | 16.43908 | 2777 ft | 241 kts | 283° |
| 2026-04-30 19:00 | 48.12773 | 16.35961 | 4789 ft | 264 kts | 282° |
| 2026-04-30 19:00 | 48.13055 | 16.33235 | 5601 ft | 267 kts | 282° |
| 2026-04-30 19:00 | 48.13784 | 16.27716 | 7090 ft | 271 kts | 298° |
| 2026-04-30 19:01 | 48.16440 | 16.24031 | 8489 ft | 265 kts | 345° |
| 2026-04-30 19:01 | 48.18234 | 16.23721 | 9181 ft | 265 kts | 8° |
| 2026-04-30 19:02 | 48.21554 | 16.26104 | 10377 ft | 280 kts | 35° |
| 2026-04-30 19:02 | 48.25015 | 16.29656 | 10702 ft | 324 kts | 34° |
| 2026-04-30 19:03 | 48.28955 | 16.33679 | 11227 ft | 354 kts | 34° |
| 2026-04-30 19:03 | 48.33059 | 16.37860 | 12587 ft | 358 kts | 34° |
| 2026-04-30 19:04 | 48.37197 | 16.42075 | 14053 ft | 360 kts | 35° |
| 2026-04-30 19:04 | 48.41343 | 16.46317 | 15312 ft | 364 kts | 35° |
| 2026-04-30 19:05 | 48.45552 | 16.50645 | 16549 ft | 369 kts | 35° |
| 2026-04-30 19:05 | 48.49830 | 16.55040 | 17751 ft | 374 kts | 34° |
| 2026-04-30 19:06 | 48.54139 | 16.59474 | 18821 ft | 379 kts | 34° |
| 2026-04-30 19:06 | 48.56319 | 16.61724 | 19358 ft | 379 kts | 35° |
| 2026-04-30 19:06 | 48.60685 | 16.66239 | 20372 ft | 382 kts | 35° |
| 2026-04-30 19:07 | 48.65085 | 16.70809 | 21344 ft | 385 kts | 35° |
| 2026-04-30 19:07 | 48.67296 | 16.73107 | 21823 ft | 386 kts | 35° |
| 2026-04-30 19:08 | 48.71748 | 16.77743 | 22703 ft | 392 kts | 36° |
| 2026-04-30 19:08 | 48.75770 | 16.83370 | 23564 ft | 396 kts | 45° |
| 2026-04-30 19:08 | 48.77702 | 16.86356 | 24004 ft | 397 kts | 45° |
| 2026-04-30 19:09 | 48.81587 | 16.92360 | 24740 ft | 399 kts | 45° |
| 2026-04-30 19:09 | 48.83530 | 16.95370 | 25113 ft | 401 kts | 45° |
| 2026-04-30 19:09 | 48.85481 | 16.98398 | 25493 ft | 402 kts | 45° |